Terminal Aerodrome Forecast
Issued by NWS Greer, SC

Home | Current Version | Previous Version | Text Only | Print | Product List | Glossary On
Versions: 1 2 3 4 5 6 7 8 9 10 11 12 13 14 15 16 17 18 19 20 21 22 23 24 25 26 27 28 29 30 31 32 33 34
000
FTUS42 KGSP 191135
TAFAVL
TAF
KAVL 191135Z 1912/2012 34015G24KT P6SM BKN035
     FM191500 34015G22KT P6SM FEW040
     FM192200 34013KT P6SM FEW040
     FM200600 34008KT P6SM SKC=

USA.gov is the U.S. government's official web portal to all federal, state and local government web resources and services.